Aviation Digital Data Service (ADDS)

Output produced by METARs form (0529 UTC 30 July 2016)
found at http://aviationweather.gov/adds/metars/
 
KRIC 292320Z 3000/3024 31005KT P6SM FEW040 SCT250 
     FM300800 00000KT 3SM BR SKC 
     FM301200 13005KT P6SM SCT030 BKN080